Pagrindinis puslapis
METAR-TAF:

METAR-TAF

Oro uostai :

Pėčas, Vengrija

platuma: 46-06N, ilguma: 018-14E, Aukštis: 201 m

Dabartinis oras

Ataskaita buvo paskelbta 8 valandos ir 20 minutes, ne 17:45 UTC
Vėjas 6 kt iš Vakarų/Šiaurės Vakarų
Temperatūra 15°C
Drėgmė 67%
Slėgis 1011 hPa
Matomumas 10 km arba daugiau
nėra debesų žemiau 1500 m ir nėra kamuolinių lietaus debesų

METAR: LHPP 301745Z 30006KT CAVOK 15/09 Q1011

Laikas: 04:05 (02:05 UTC)

Prognozė

Ataskaita buvo paskelbta 11 valandos ir 50 minutes, ne 14:15 UTC
Prognozė galioja nuo 30 metu 15 UTC su 30 metu 24 UTC
Vėjas 8 kt iš Šiaurės Vakarų
Matomumas 10 km arba daugiau
Išsisklaidę debesys ne aukštis 3000 ft
Su prošvaistėmis ne aukštis 7000 ft
Laikinai
nuo 30 metu 15 UTC su 30 metu 24 UTC
Su prošvaistėmis ne aukštis 2000 ft
Apsiniaukę ne aukštis 4000 ft
lietus, lietus

TAF: LHPP 301415Z 3015/3024 32008KT 9999 SCT030 BKN070 TEMPO 3015/3024 -RA -SHRA BKN020 OVC040

Orai ataskaitas ir orų prognozės (METAR, TAF).

turimą stotys yra geltonos ir raudonos taškus žemėlapyje.

Perkelti pele per norėdami pamatyti stoties vardą.

Tada spustelėkite, norėdami matyti oro stebėjimo ir prognozės.

Norėdami pakeisti žemėlapį: spustelėkite ant žalios mygtukų su juodo kryžiaus žemyn,; žalią mygtuką su brūkšneliu, jei norite nutolinti; arba žalių rodyklių gretimoms žemėlapius.


METAR-TAF: